createdAt,value
2018-07-09T00:01:38.852Z,43.50
2018-07-09T00:04:09.167Z,43.70
2018-07-09T00:06:39.546Z,43.80
2018-07-09T00:09:09.351Z,43.80
2018-07-09T00:11:38.872Z,43.80
2018-07-09T00:14:07.520Z,43.90
2018-07-09T00:16:38.024Z,43.80
2018-07-09T00:19:08.342Z,44.20
2018-07-09T00:21:38.861Z,44.40
2018-07-09T00:24:07.511Z,44.70
2018-07-09T00:26:36.750Z,44.50
2018-07-09T00:29:05.468Z,44.80
2018-07-09T00:31:34.208Z,44.90
2018-07-09T00:34:02.879Z,45.00
2018-07-09T00:36:31.433Z,45.70
2018-07-09T00:39:00.012Z,45.10
2018-07-09T00:43:57.682Z,45.30
2018-07-09T00:46:26.230Z,45.50
2018-07-09T00:48:55.411Z,45.50
2018-07-09T00:51:24.280Z,45.60
2018-07-09T00:53:52.964Z,45.60
2018-07-09T00:56:22.092Z,45.60
2018-07-09T00:58:51.124Z,45.80
2018-07-09T01:01:20.218Z,45.90
2018-07-09T01:03:48.945Z,46.00
2018-07-09T01:06:18.176Z,46.10
2018-07-09T01:08:46.836Z,46.30
2018-07-09T01:11:26.828Z,46.40
2018-07-09T01:13:55.418Z,46.50
2018-07-09T01:18:52.206Z,46.60
2018-07-09T01:21:20.863Z,46.90
2018-07-09T01:23:49.509Z,46.90
2018-07-09T01:26:18.379Z,47.00
2018-07-09T01:28:47.621Z,47.20
2018-07-09T01:31:16.405Z,47.20
2018-07-09T01:33:51.483Z,47.20
2018-07-09T01:36:20.134Z,47.20
2018-07-09T01:38:48.873Z,47.50
2018-07-09T01:41:17.432Z,47.70
2018-07-09T01:43:45.979Z,47.80
2018-07-09T01:46:14.542Z,48.00
2018-07-09T01:48:43.083Z,48.10
2018-07-09T01:51:11.794Z,48.20
2018-07-09T01:53:40.876Z,48.40
2018-07-09T01:56:09.856Z,48.40
2018-07-09T01:58:38.485Z,48.60
2018-07-09T02:01:07.025Z,48.70
2018-07-09T02:03:35.545Z,48.80
2018-07-09T02:06:04.526Z,48.90
2018-07-09T02:08:33.046Z,49.00
2018-07-09T02:11:01.603Z,49.10
2018-07-09T02:13:30.171Z,49.10
2018-07-09T02:15:58.734Z,49.20
2018-07-09T02:18:27.305Z,49.30
2018-07-09T02:20:55.804Z,49.40
2018-07-09T02:23:24.617Z,49.40
2018-07-09T02:25:53.229Z,49.40
2018-07-09T02:28:21.797Z,49.30
2018-07-09T02:30:50.483Z,49.40
2018-07-09T02:33:20.085Z,49.40
2018-07-09T02:35:48.684Z,49.40
2018-07-09T02:38:17.217Z,49.40
2018-07-09T02:43:17.031Z,49.50
2018-07-09T02:45:45.632Z,49.60
2018-07-09T02:48:14.157Z,49.60
2018-07-09T02:50:42.733Z,49.80
2018-07-09T02:53:11.261Z,50.00
2018-07-09T02:55:41.795Z,50.00
2018-07-09T02:58:10.302Z,50.20
2018-07-09T03:00:39.459Z,50.90
2018-07-09T03:03:08.354Z,50.30
2018-07-09T03:05:36.920Z,50.60
2018-07-09T03:08:05.727Z,50.70
2018-07-09T03:10:34.641Z,50.80
2018-07-09T03:13:03.190Z,50.80
2018-07-09T03:15:31.781Z,50.80
2018-07-09T03:18:00.489Z,51.20
2018-07-09T03:20:29.120Z,51.40
2018-07-09T03:22:58.560Z,51.40
2018-07-09T03:25:27.212Z,51.70
2018-07-09T03:27:55.815Z,51.90
2018-07-09T03:30:24.326Z,52.30
2018-07-09T03:32:53.052Z,52.40
2018-07-09T03:35:21.665Z,52.70
2018-07-09T03:37:50.550Z,52.80
2018-07-09T03:40:19.709Z,53.00
2018-07-09T03:42:48.223Z,53.10
2018-07-09T03:45:16.745Z,53.80
2018-07-09T03:47:45.282Z,53.40
2018-07-09T03:50:13.985Z,53.50
2018-07-09T03:52:42.531Z,53.60
2018-07-09T03:55:11.070Z,53.90
2018-07-09T03:57:39.941Z,54.00
2018-07-09T04:00:08.517Z,54.30
2018-07-09T04:02:37.073Z,54.50
2018-07-09T04:05:05.607Z,54.80
2018-07-09T04:07:34.208Z,54.80
2018-07-09T04:10:02.829Z,55.10
2018-07-09T04:12:31.468Z,55.10
2018-07-09T04:15:00.009Z,55.10
2018-07-09T04:17:28.570Z,55.20
2018-07-09T04:19:57.100Z,55.10
2018-07-09T04:22:25.995Z,55.20
2018-07-09T04:24:54.550Z,55.10
2018-07-09T04:27:23.343Z,55.10
2018-07-09T04:29:51.913Z,55.30
2018-07-09T04:32:20.414Z,55.30
2018-07-09T04:34:49.118Z,55.30
2018-07-09T04:37:17.689Z,55.20
2018-07-09T04:39:46.653Z,55.30
2018-07-09T04:42:15.167Z,55.30
2018-07-09T04:44:43.720Z,55.60
2018-07-09T04:47:12.230Z,55.60
2018-07-09T04:49:40.817Z,55.60
2018-07-09T04:52:09.432Z,55.70
2018-07-09T04:57:06.306Z,55.80
2018-07-09T04:59:34.868Z,55.70
2018-07-09T05:02:03.457Z,55.70
2018-07-09T05:04:32.017Z,55.70
2018-07-09T05:07:00.556Z,55.80
2018-07-09T05:09:29.118Z,55.80
2018-07-09T05:11:57.722Z,56.00
2018-07-09T05:14:26.277Z,56.10
2018-07-09T05:16:54.759Z,56.00
2018-07-09T05:19:23.640Z,56.20
2018-07-09T05:21:52.942Z,56.10
2018-07-09T05:24:21.497Z,56.10
2018-07-09T05:26:50.210Z,56.10
2018-07-09T05:29:19.649Z,56.40
2018-07-09T05:31:48.773Z,56.40
2018-07-09T05:34:17.358Z,56.50
2018-07-09T05:36:46.076Z,56.50
2018-07-09T05:39:15.540Z,56.50
2018-07-09T05:41:44.102Z,56.70
2018-07-09T05:44:12.731Z,56.80
2018-07-09T05:46:41.558Z,57.00
2018-07-09T05:49:10.446Z,57.00
2018-07-09T05:51:40.115Z,57.10
2018-07-09T05:54:08.674Z,57.10
2018-07-09T05:56:37.295Z,57.20
2018-07-09T05:59:05.841Z,57.20
2018-07-09T06:01:34.435Z,57.40
2018-07-09T06:06:31.212Z,57.50
2018-07-09T06:09:00.096Z,57.30
2018-07-09T06:11:28.697Z,57.30
2018-07-09T06:13:57.161Z,57.10
2018-07-09T06:16:25.762Z,57.00
2018-07-09T06:18:54.427Z,57.20
2018-07-09T06:21:23.014Z,56.90
2018-07-09T06:23:51.604Z,56.90
2018-07-09T06:26:20.656Z,56.90
2018-07-09T06:28:49.465Z,56.60
2018-07-09T06:31:18.308Z,56.60
2018-07-09T06:33:47.425Z,56.60
2018-07-09T06:36:16.107Z,57.00
2018-07-09T06:38:45.673Z,56.10
2018-07-09T06:41:14.640Z,56.00
2018-07-09T06:43:43.368Z,55.80
2018-07-09T06:46:12.084Z,55.50
2018-07-09T06:48:40.643Z,54.90
2018-07-09T06:51:09.137Z,54.90
2018-07-09T06:53:37.972Z,54.10
2018-07-09T06:56:06.651Z,54.50
2018-07-09T06:58:35.213Z,54.70
2018-07-09T07:03:32.242Z,54.30
2018-07-09T07:06:00.868Z,53.90
2018-07-09T07:08:29.394Z,53.90
2018-07-09T07:10:57.948Z,53.60
2018-07-09T07:13:26.581Z,53.30
2018-07-09T07:15:55.244Z,53.20
2018-07-09T07:18:23.929Z,52.90
2018-07-09T07:20:52.557Z,53.00
2018-07-09T07:23:21.349Z,52.70
2018-07-09T07:25:50.484Z,52.80
2018-07-09T07:30:50.307Z,52.30
2018-07-09T07:33:19.256Z,52.10
2018-07-09T07:35:48.021Z,51.80
2018-07-09T07:38:16.604Z,51.50
2018-07-09T07:40:45.799Z,52.10
2018-07-09T07:43:15.123Z,51.90
2018-07-09T07:45:45.027Z,52.10
2018-07-09T07:50:25.211Z,52.10
2018-07-09T07:52:54.271Z,51.50
2018-07-09T07:55:22.997Z,50.80
2018-07-09T07:57:51.548Z,50.70
2018-07-09T08:00:20.597Z,50.20
2018-07-09T08:02:49.786Z,50.30
2018-07-09T08:05:18.374Z,50.90
2018-07-09T08:07:47.340Z,49.90
2018-07-09T08:10:15.919Z,49.70
2018-07-09T08:13:01.003Z,49.90
2018-07-09T08:15:13.237Z,50.80
2018-07-09T08:17:41.990Z,49.50
2018-07-09T08:24:54.537Z,48.90
2018-07-09T08:27:23.072Z,49.00
2018-07-09T08:29:51.850Z,48.40
2018-07-09T08:32:20.900Z,48.20
2018-07-09T08:37:18.651Z,48.10
2018-07-09T08:39:47.530Z,47.70
2018-07-09T08:42:16.753Z,47.10
2018-07-09T08:44:45.836Z,47.40
2018-07-09T08:47:15.126Z,47.40
2018-07-09T08:49:44.040Z,46.80
2018-07-09T08:52:13.334Z,47.20
2018-07-09T08:54:41.984Z,47.20
2018-07-09T08:57:11.017Z,47.10
2018-07-09T08:59:39.864Z,47.30
2018-07-09T09:02:09.153Z,47.20
2018-07-09T09:04:37.840Z,47.00
2018-07-09T09:07:07.003Z,46.70
2018-07-09T09:09:35.714Z,46.30
2018-07-09T09:12:05.512Z,46.70
2018-07-09T09:14:42.837Z,46.30
2018-07-09T09:17:11.391Z,46.40
2018-07-09T09:19:40.251Z,46.00
2018-07-09T09:22:08.884Z,46.20
2018-07-09T09:24:37.854Z,45.70
2018-07-09T09:27:06.553Z,45.60
2018-07-09T09:29:35.765Z,46.00
2018-07-09T09:32:04.363Z,45.70
2018-07-09T09:34:34.444Z,45.50
2018-07-09T09:37:03.213Z,45.60
2018-07-09T09:39:32.128Z,45.50
2018-07-09T09:42:01.534Z,45.70
2018-07-09T09:44:30.130Z,45.10
2018-07-09T09:46:58.854Z,44.70
2018-07-09T09:49:28.891Z,44.60
2018-07-09T09:51:58.206Z,44.70
2018-07-09T09:54:27.987Z,44.70
2018-07-09T09:56:57.249Z,44.30
2018-07-09T09:59:25.884Z,44.50
2018-07-09T10:01:54.501Z,44.00
2018-07-09T10:04:23.492Z,43.70
2018-07-09T10:06:52.126Z,43.50
2018-07-09T10:09:20.728Z,44.00
2018-07-09T10:11:49.808Z,42.60
2018-07-09T10:14:20.348Z,42.70
2018-07-09T10:16:50.362Z,42.50
2018-07-09T10:19:20.986Z,42.40
2018-07-09T10:21:53.011Z,43.00
2018-07-09T10:24:22.423Z,42.80
2018-07-09T10:26:56.932Z,41.90
2018-07-09T10:29:26.101Z,41.70
2018-07-09T10:31:55.801Z,42.10
2018-07-09T10:34:26.261Z,42.30
2018-07-09T10:36:54.980Z,42.20
2018-07-09T10:39:23.533Z,42.10
2018-07-09T10:41:52.228Z,42.00
2018-07-09T10:44:20.771Z,42.10
2018-07-09T10:46:49.372Z,41.50
2018-07-09T10:49:18.163Z,41.40
2018-07-09T10:51:46.680Z,41.00
2018-07-09T10:54:15.434Z,41.10
2018-07-09T10:56:44.364Z,41.20
2018-07-09T10:59:13.002Z,41.70
2018-07-09T11:01:41.572Z,41.40
2018-07-09T11:04:10.183Z,41.10
2018-07-09T11:06:39.535Z,41.40
2018-07-09T11:09:08.714Z,41.20
2018-07-09T11:11:38.635Z,40.50
2018-07-09T11:14:07.225Z,40.30
2018-07-09T11:16:35.719Z,40.70
2018-07-09T11:19:04.300Z,40.80
2018-07-09T11:21:32.878Z,41.00
2018-07-09T11:24:01.383Z,40.30
2018-07-09T11:26:29.960Z,40.20
2018-07-09T11:28:59.348Z,40.30
2018-07-09T11:31:28.689Z,40.40
2018-07-09T11:33:57.456Z,40.10
2018-07-09T11:36:26.261Z,40.10
2018-07-09T11:38:54.742Z,40.50
2018-07-09T11:41:23.553Z,39.70
2018-07-09T11:43:52.456Z,39.40
2018-07-09T11:46:21.370Z,39.20
2018-07-09T11:48:49.947Z,39.00
2018-07-09T11:51:18.897Z,39.70
2018-07-09T11:53:47.393Z,39.50
2018-07-09T11:56:15.947Z,39.70
2018-07-09T11:58:44.590Z,40.40
2018-07-09T12:01:13.087Z,39.60
2018-07-09T12:03:41.917Z,39.80
2018-07-09T12:06:10.562Z,39.20
2018-07-09T12:08:39.630Z,39.70
2018-07-09T12:11:08.484Z,39.90
2018-07-09T12:13:37.016Z,40.40
2018-07-09T12:16:05.613Z,40.40
2018-07-09T12:18:34.829Z,39.50
2018-07-09T12:21:03.787Z,39.40
2018-07-09T12:23:32.660Z,39.60
2018-07-09T12:26:01.264Z,39.70
2018-07-09T12:28:29.866Z,39.90
2018-07-09T12:30:58.416Z,40.60
2018-07-09T12:33:27.047Z,39.90
2018-07-09T12:35:55.623Z,40.20
2018-07-09T12:38:24.146Z,40.20
2018-07-09T12:40:52.681Z,39.70
2018-07-09T12:43:21.755Z,39.60
2018-07-09T12:45:50.359Z,40.30
2018-07-09T12:48:19.000Z,40.30
2018-07-09T12:50:47.610Z,41.30
2018-07-09T12:53:17.162Z,40.20
2018-07-09T12:55:45.771Z,40.60
2018-07-09T12:58:14.352Z,40.10
2018-07-09T13:00:43.028Z,40.30
2018-07-09T13:03:11.633Z,40.20
2018-07-09T13:05:40.580Z,40.70
2018-07-09T13:08:09.640Z,40.80
2018-07-09T13:10:38.955Z,41.90
2018-07-09T13:13:07.962Z,41.70
2018-07-09T13:15:36.527Z,41.60
2018-07-09T13:18:05.137Z,41.70
2018-07-09T13:20:33.753Z,41.50
2018-07-09T13:23:02.308Z,41.30
2018-07-09T13:25:30.958Z,41.70
2018-07-09T13:27:59.543Z,41.90
2018-07-09T13:30:28.106Z,42.50
2018-07-09T13:32:57.569Z,42.80
2018-07-09T13:35:26.574Z,42.80
2018-07-09T13:37:55.521Z,42.30
2018-07-09T13:40:24.042Z,42.50
2018-07-09T13:42:52.716Z,43.40
2018-07-09T13:47:49.674Z,42.80
2018-07-09T13:50:18.533Z,43.20
2018-07-09T13:52:47.187Z,43.50
2018-07-09T13:55:15.811Z,43.60
2018-07-09T13:57:44.454Z,44.00
2018-07-09T14:00:13.586Z,44.10
2018-07-09T14:02:42.131Z,44.30
2018-07-09T14:05:10.773Z,44.30
2018-07-09T14:07:39.597Z,44.40
2018-07-09T14:10:08.145Z,44.40
2018-07-09T14:12:36.693Z,44.80
2018-07-09T14:15:05.375Z,44.90
2018-07-09T14:17:33.931Z,45.20
2018-07-09T14:20:26.122Z,44.70
2018-07-09T14:22:54.842Z,44.70
2018-07-09T14:25:23.422Z,45.10
2018-07-09T14:27:52.054Z,45.50
2018-07-09T14:30:20.605Z,44.80
2018-07-09T14:32:49.202Z,44.80
2018-07-09T14:35:17.782Z,44.90
2018-07-09T14:37:46.499Z,45.10
2018-07-09T14:40:15.055Z,44.80
2018-07-09T14:42:43.709Z,44.50
2018-07-09T14:45:12.398Z,44.80
2018-07-09T14:47:41.321Z,44.70
2018-07-09T14:50:09.865Z,43.80
2018-07-09T14:52:39.278Z,43.90
2018-07-09T14:55:07.842Z,43.70
2018-07-09T14:57:36.379Z,43.80
2018-07-09T15:00:05.756Z,43.60
2018-07-09T15:02:34.671Z,43.50
2018-07-09T15:05:03.147Z,43.30
2018-07-09T15:07:31.733Z,43.70
2018-07-09T15:12:28.882Z,43.70
2018-07-09T15:14:57.419Z,43.80
2018-07-09T15:17:26.204Z,43.20
2018-07-09T15:19:54.838Z,41.80
2018-07-09T15:22:23.527Z,41.50
2018-07-09T15:24:52.141Z,41.20
2018-07-09T15:27:21.105Z,41.40
2018-07-09T15:29:49.847Z,41.50
2018-07-09T15:32:23.076Z,41.60
2018-07-09T15:34:52.032Z,41.80
2018-07-09T15:37:20.937Z,41.80
2018-07-09T15:39:50.664Z,41.50
2018-07-09T15:42:19.456Z,42.00
2018-07-09T15:44:48.876Z,42.00
2018-07-09T15:47:17.624Z,41.70
2018-07-09T15:49:46.246Z,41.90
2018-07-09T15:52:15.336Z,42.30
2018-07-09T15:54:44.106Z,42.30
2018-07-09T15:57:12.644Z,42.00
2018-07-09T15:59:41.315Z,41.60
2018-07-09T16:02:10.276Z,41.30
2018-07-09T16:04:40.176Z,41.60
2018-07-09T16:07:09.119Z,41.80
2018-07-09T16:09:38.111Z,41.80
2018-07-09T16:12:06.832Z,42.00
2018-07-09T16:14:35.358Z,42.00
2018-07-09T16:17:03.933Z,42.10
2018-07-09T16:19:32.670Z,41.90
2018-07-09T16:22:01.573Z,41.90
2018-07-09T16:24:30.287Z,42.10
2018-07-09T16:26:58.817Z,42.50
2018-07-09T16:29:27.867Z,42.70
2018-07-09T16:31:56.558Z,42.80
2018-07-09T16:34:25.218Z,42.80
2018-07-09T16:36:54.121Z,42.80
2018-07-09T16:39:22.702Z,43.40
2018-07-09T16:41:51.281Z,43.60
2018-07-09T16:44:19.940Z,44.00
2018-07-09T16:46:48.627Z,43.50
2018-07-09T16:49:17.242Z,43.80
2018-07-09T16:51:45.831Z,44.20
2018-07-09T16:54:14.478Z,44.00
2018-07-09T16:56:43.094Z,44.10
2018-07-09T16:59:11.674Z,44.20
2018-07-09T17:01:41.707Z,44.20
2018-07-09T17:04:10.307Z,44.40
2018-07-09T17:06:39.001Z,45.20
2018-07-09T17:09:07.524Z,44.70
2018-07-09T17:11:36.058Z,44.80
2018-07-09T17:14:04.727Z,44.80
2018-07-09T17:16:33.357Z,44.80
2018-07-09T17:19:01.970Z,45.00
2018-07-09T17:21:30.503Z,45.00
2018-07-09T17:23:59.082Z,45.20
2018-07-09T17:28:55.937Z,45.30
2018-07-09T17:31:24.821Z,45.40
2018-07-09T17:33:53.381Z,45.50
2018-07-09T17:36:22.012Z,45.70
2018-07-09T17:38:51.234Z,45.70
2018-07-09T17:41:20.397Z,45.60
2018-07-09T17:46:17.780Z,45.70
2018-07-09T17:48:46.411Z,45.90
2018-07-09T17:51:14.992Z,46.10
2018-07-09T17:53:43.599Z,46.10
2018-07-09T17:56:12.313Z,46.20
2018-07-09T17:58:41.055Z,46.20
2018-07-09T18:01:09.681Z,46.40
2018-07-09T18:03:38.536Z,46.50
2018-07-09T18:06:07.139Z,46.70
2018-07-09T18:08:35.764Z,46.90
2018-07-09T18:11:04.371Z,47.20
2018-07-09T18:13:32.982Z,47.50
2018-07-09T18:16:01.560Z,48.00
2018-07-09T18:18:30.391Z,48.60
2018-07-09T18:20:59.400Z,49.90
2018-07-09T18:23:28.113Z,50.70
2018-07-09T18:25:56.759Z,51.50
2018-07-09T18:28:25.490Z,52.30
2018-07-09T18:30:54.038Z,52.90
2018-07-09T18:33:22.655Z,53.30
2018-07-09T18:38:19.602Z,54.00
2018-07-09T18:40:49.481Z,54.00
2018-07-09T18:43:18.129Z,54.30
2018-07-09T18:45:46.919Z,54.40
2018-07-09T18:48:15.524Z,54.80
2018-07-09T18:50:44.145Z,55.00
2018-07-09T18:53:12.722Z,55.10
2018-07-09T18:55:41.334Z,55.20
2018-07-09T18:58:09.907Z,55.30
2018-07-09T19:00:38.583Z,55.70
2018-07-09T19:03:07.172Z,55.80
2018-07-09T19:05:49.495Z,56.00
2018-07-09T19:08:18.393Z,56.00
2018-07-09T19:10:47.447Z,56.10
2018-07-09T19:13:17.105Z,56.20
2018-07-09T19:15:45.897Z,56.20
2018-07-09T19:21:33.978Z,56.30
2018-07-09T19:24:02.151Z,56.30
2018-07-09T19:26:29.700Z,56.20
2018-07-09T19:28:57.132Z,56.20
2018-07-09T19:31:24.499Z,56.10
2018-07-09T19:33:52.005Z,56.00
2018-07-09T19:36:19.657Z,55.90
2018-07-09T19:38:47.605Z,56.10
2018-07-09T19:41:15.804Z,56.20
2018-07-09T19:46:11.031Z,56.20
2018-07-09T19:48:38.800Z,56.00
2018-07-09T19:51:06.204Z,55.90
2018-07-09T19:53:33.600Z,56.00
2018-07-09T19:56:00.983Z,56.00
2018-07-09T19:58:28.426Z,56.00
2018-07-09T20:00:55.843Z,56.10
2018-07-09T20:03:23.292Z,56.30
2018-07-09T20:05:51.065Z,56.50
2018-07-09T20:08:18.476Z,56.50
2018-07-09T20:13:24.423Z,56.80
2018-07-09T20:15:57.310Z,56.80
2018-07-09T20:18:26.107Z,56.80
2018-07-09T20:20:54.420Z,56.80
2018-07-09T20:23:22.183Z,56.80
2018-07-09T20:25:51.329Z,57.10
2018-07-09T20:28:20.050Z,57.40
2018-07-09T20:30:48.076Z,57.90
2018-07-09T20:33:16.644Z,58.40
2018-07-09T20:35:44.132Z,58.60
2018-07-09T20:38:13.358Z,59.10
2018-07-09T20:40:41.009Z,59.30
2018-07-09T20:43:08.811Z,59.40
2018-07-09T20:45:36.309Z,59.50
2018-07-09T20:48:03.934Z,59.60
2018-07-09T20:50:31.933Z,59.50
2018-07-09T20:52:59.729Z,59.90
2018-07-09T20:55:27.941Z,59.80
2018-07-09T20:57:55.766Z,59.90
2018-07-09T21:00:24.172Z,60.00
2018-07-09T21:02:53.251Z,60.10
2018-07-09T21:05:21.065Z,60.40
2018-07-09T21:07:48.503Z,60.50
2018-07-09T21:10:16.198Z,60.40
2018-07-09T21:12:49.325Z,60.60
2018-07-09T21:15:18.304Z,60.50
2018-07-09T21:17:45.593Z,60.30
2018-07-09T21:20:13.063Z,60.30
2018-07-09T21:22:40.681Z,60.40
2018-07-09T21:25:08.071Z,60.30
2018-07-09T21:27:35.788Z,60.50
2018-07-09T21:30:03.549Z,60.70
2018-07-09T21:32:31.064Z,60.70
2018-07-09T21:34:58.519Z,60.80
2018-07-09T21:37:26.190Z,61.10
2018-07-09T21:39:54.189Z,61.00
2018-07-09T21:42:21.978Z,60.70
2018-07-09T21:47:17.686Z,61.00
2018-07-09T21:49:45.659Z,60.60
2018-07-09T21:52:13.660Z,60.70
2018-07-09T21:54:41.036Z,60.90
2018-07-09T21:57:08.444Z,61.30
2018-07-09T21:59:35.847Z,60.80
2018-07-09T22:02:03.254Z,60.90
2018-07-09T22:04:30.692Z,61.10
2018-07-09T22:06:58.071Z,61.00
2018-07-09T22:09:25.541Z,61.00
2018-07-09T22:11:52.947Z,61.00
2018-07-09T22:14:20.404Z,61.00
2018-07-09T22:16:47.886Z,61.70
2018-07-09T22:19:15.590Z,61.10
2018-07-09T22:21:43.371Z,61.30
2018-07-09T22:24:10.796Z,61.50
2018-07-09T22:26:39.713Z,61.50
2018-07-09T22:29:08.256Z,61.50
2018-07-09T22:31:39.820Z,61.80
2018-07-09T22:34:08.822Z,61.50
2018-07-09T22:36:38.400Z,61.70
2018-07-09T22:39:09.341Z,61.60
2018-07-09T22:41:39.901Z,61.60
2018-07-09T22:44:17.038Z,61.80
2018-07-09T22:46:45.831Z,61.60
2018-07-09T22:49:17.466Z,61.90
2018-07-09T22:51:47.445Z,61.50
2018-07-09T22:54:18.617Z,62.20
2018-07-09T22:56:47.173Z,61.40
2018-07-09T22:59:15.966Z,61.40
2018-07-09T23:01:44.632Z,61.70
2018-07-09T23:04:14.651Z,61.50
2018-07-09T23:06:43.180Z,61.70
2018-07-09T23:10:25.096Z,61.90
2018-07-09T23:17:04.709Z,62.00
2018-07-09T23:20:04.216Z,62.10
2018-07-09T23:22:32.593Z,62.30
2018-07-09T23:25:01.109Z,62.40
2018-07-09T23:27:30.007Z,62.40
2018-07-09T23:29:58.593Z,62.30
2018-07-09T23:32:27.285Z,62.30
2018-07-09T23:34:56.077Z,62.30
2018-07-09T23:37:25.392Z,62.20
2018-07-09T23:39:54.666Z,62.10
2018-07-09T23:42:23.233Z,62.30
2018-07-09T23:44:51.772Z,62.40
2018-07-09T23:47:20.550Z,62.30
2018-07-09T23:49:48.051Z,62.20
2018-07-09T23:52:17.207Z,61.90
2018-07-09T23:54:44.729Z,61.70
2018-07-09T23:57:29.576Z,61.50
